createdAt,value
2022-11-25T00:01:09.053Z,60.90
2022-11-25T00:03:36.469Z,60.90
2022-11-25T00:06:13.048Z,61.00
2022-11-25T00:08:40.991Z,61.00
2022-11-25T00:11:08.511Z,61.00
2022-11-25T00:13:36.217Z,60.90
2022-11-25T00:16:04.841Z,60.80
2022-11-25T00:18:31.730Z,60.90
2022-11-25T00:20:59.242Z,60.80
2022-11-25T00:23:30.393Z,60.80
2022-11-25T00:26:16.072Z,60.80
2022-11-25T00:28:45.272Z,60.80
2022-11-25T00:31:13.464Z,60.80
2022-11-25T00:33:40.552Z,60.90
2022-11-25T00:36:15.023Z,60.80
2022-11-25T00:38:41.656Z,60.20
2022-11-25T00:41:26.686Z,60.80
2022-11-25T00:44:12.062Z,60.80
2022-11-25T00:46:38.819Z,60.90
2022-11-25T00:49:05.565Z,60.80
2022-11-25T00:51:32.163Z,60.80
2022-11-25T00:53:59.266Z,60.80
2022-11-25T00:56:26.546Z,60.80
2022-11-25T00:58:54.040Z,60.80
2022-11-25T01:01:20.726Z,60.80
2022-11-25T01:03:51.572Z,60.80
2022-11-25T01:06:18.711Z,60.80
2022-11-25T01:08:45.739Z,60.70
2022-11-25T01:11:14.847Z,60.60
2022-11-25T01:13:42.158Z,60.70
2022-11-25T01:16:12.016Z,60.70
2022-11-25T01:18:38.813Z,60.70
2022-11-25T01:21:13.543Z,60.70
2022-11-25T01:23:41.488Z,60.70
2022-11-25T01:26:11.416Z,60.80
2022-11-25T01:28:38.264Z,60.70
2022-11-25T01:31:08.357Z,60.70
2022-11-25T01:33:35.418Z,60.70
2022-11-25T01:36:07.587Z,60.70
2022-11-25T01:38:35.245Z,60.70
2022-11-25T01:41:02.820Z,60.70
2022-11-25T01:43:29.908Z,60.70
2022-11-25T01:46:20.846Z,60.70
2022-11-25T01:48:53.587Z,61.40
2022-11-25T01:51:41.564Z,60.70
2022-11-25T01:54:11.167Z,60.70
2022-11-25T01:56:43.818Z,60.60
2022-11-25T01:59:11.627Z,60.60
2022-11-25T02:01:38.674Z,60.50
2022-11-25T02:04:07.476Z,60.60
2022-11-25T02:06:44.117Z,60.50
2022-11-25T02:09:10.782Z,60.50
2022-11-25T02:11:41.675Z,59.90
2022-11-25T02:14:09.413Z,60.60
2022-11-25T02:16:36.097Z,60.60
2022-11-25T02:19:03.538Z,60.60
2022-11-25T02:21:46.913Z,60.60
2022-11-25T02:24:23.235Z,60.60
2022-11-25T02:26:49.912Z,60.50
2022-11-25T02:29:16.715Z,60.30
2022-11-25T02:31:44.367Z,60.50
2022-11-25T02:34:11.038Z,59.90
2022-11-25T02:36:37.708Z,60.40
2022-11-25T02:39:04.752Z,60.30
2022-11-25T02:41:43.163Z,60.50
2022-11-25T02:44:09.870Z,60.50
2022-11-25T02:46:36.682Z,60.50
2022-11-25T02:49:11.584Z,60.40
2022-11-25T02:51:40.734Z,60.40
2022-11-25T02:54:07.764Z,60.40
2022-11-25T02:56:35.251Z,60.40
2022-11-25T02:59:02.397Z,60.50
2022-11-25T03:01:31.301Z,60.40
2022-11-25T03:03:58.261Z,60.40
2022-11-25T03:06:24.883Z,60.40
2022-11-25T03:08:51.652Z,60.40
2022-11-25T03:11:18.274Z,60.50
2022-11-25T03:13:44.871Z,60.30
2022-11-25T03:16:11.844Z,60.50
2022-11-25T03:18:38.620Z,60.40
2022-11-25T03:21:05.442Z,60.40
2022-11-25T03:23:32.011Z,60.30
2022-11-25T03:25:58.641Z,60.40
2022-11-25T03:28:25.309Z,60.40
2022-11-25T03:30:51.992Z,60.30
2022-11-25T03:33:18.583Z,59.80
2022-11-25T03:35:45.175Z,60.40
2022-11-25T03:38:11.764Z,60.20
2022-11-25T03:40:38.338Z,60.30
2022-11-25T03:43:05.465Z,60.20
2022-11-25T03:45:32.185Z,60.20
2022-11-25T03:47:58.795Z,60.10
2022-11-25T03:50:25.403Z,60.20
2022-11-25T03:52:52.054Z,60.20
2022-11-25T03:55:18.721Z,60.20
2022-11-25T03:57:45.398Z,60.20
2022-11-25T04:00:12.516Z,60.10
2022-11-25T04:02:39.130Z,60.00
2022-11-25T04:05:06.194Z,60.00
2022-11-25T04:07:33.036Z,60.00
2022-11-25T04:09:59.953Z,60.00
2022-11-25T04:12:45.408Z,59.50
2022-11-25T04:15:12.111Z,60.00
2022-11-25T04:17:38.741Z,60.00
2022-11-25T04:20:06.105Z,60.00
2022-11-25T04:22:32.725Z,59.50
2022-11-25T04:24:59.456Z,60.00
2022-11-25T04:27:26.067Z,60.00
2022-11-25T04:29:52.668Z,60.00
2022-11-25T04:32:19.299Z,60.00
2022-11-25T04:34:45.921Z,60.00
2022-11-25T04:37:12.598Z,60.00
2022-11-25T04:39:39.210Z,60.00
2022-11-25T04:42:24.896Z,59.90
2022-11-25T04:45:07.585Z,59.90
2022-11-25T04:47:39.452Z,59.90
2022-11-25T04:50:08.891Z,59.90
2022-11-25T04:52:35.588Z,59.80
2022-11-25T04:55:02.182Z,59.90
2022-11-25T04:57:28.780Z,59.70
2022-11-25T04:59:55.387Z,59.70
2022-11-25T05:02:24.494Z,59.80
2022-11-25T05:04:53.028Z,59.70
2022-11-25T05:07:21.737Z,59.70
2022-11-25T05:09:48.530Z,58.20
2022-11-25T05:12:27.204Z,59.20
2022-11-25T05:14:53.918Z,59.80
2022-11-25T05:17:23.303Z,59.80
2022-11-25T05:19:50.865Z,59.80
2022-11-25T05:22:20.417Z,59.80
2022-11-25T05:24:47.676Z,59.70
2022-11-25T05:27:15.221Z,59.80
2022-11-25T05:29:42.043Z,59.70
2022-11-25T05:32:09.071Z,59.70
2022-11-25T05:34:36.319Z,59.70
2022-11-25T05:37:03.271Z,59.70
2022-11-25T05:39:30.060Z,59.80
2022-11-25T05:41:56.756Z,59.70
2022-11-25T05:44:23.467Z,60.00
2022-11-25T05:46:50.754Z,59.90
2022-11-25T05:49:18.753Z,59.90
2022-11-25T05:51:45.592Z,59.80
2022-11-25T05:54:12.522Z,60.30
2022-11-25T05:56:39.197Z,59.70
2022-11-25T05:59:06.210Z,59.50
2022-11-25T06:01:33.523Z,59.40
2022-11-25T06:04:04.749Z,59.50
2022-11-25T06:06:32.336Z,59.80
2022-11-25T06:08:59.501Z,59.80
2022-11-25T06:11:26.637Z,59.50
2022-11-25T06:13:55.498Z,59.50
2022-11-25T06:16:23.508Z,59.80
2022-11-25T06:18:50.591Z,59.70
2022-11-25T06:21:17.547Z,59.70
2022-11-25T06:23:46.862Z,59.60
2022-11-25T06:26:19.597Z,59.50
2022-11-25T06:28:46.699Z,59.00
2022-11-25T06:31:16.146Z,58.80
2022-11-25T06:33:45.817Z,58.90
2022-11-25T06:36:16.896Z,59.10
2022-11-25T06:38:52.616Z,58.80
2022-11-25T06:41:20.440Z,58.90
2022-11-25T06:43:47.118Z,58.80
2022-11-25T06:46:18.557Z,58.70
2022-11-25T06:48:49.666Z,58.70
2022-11-25T06:51:17.031Z,58.70
2022-11-25T06:53:44.141Z,58.70
2022-11-25T06:56:22.667Z,58.80
2022-11-25T06:58:50.031Z,58.80
2022-11-25T07:01:19.580Z,58.90
2022-11-25T07:03:48.153Z,58.90
2022-11-25T07:06:16.592Z,58.90
2022-11-25T07:08:43.960Z,58.80
2022-11-25T07:11:20.540Z,58.70
2022-11-25T07:13:47.955Z,58.30
2022-11-25T07:16:15.137Z,58.80
2022-11-25T07:18:41.932Z,58.80
2022-11-25T07:21:11.545Z,58.90
2022-11-25T07:23:38.970Z,58.80
2022-11-25T07:26:10.462Z,58.80
2022-11-25T07:28:38.031Z,58.90
2022-11-25T07:31:32.525Z,58.90
2022-11-25T07:34:01.751Z,58.90
2022-11-25T07:36:29.839Z,58.80
2022-11-25T07:38:58.716Z,58.80
2022-11-25T07:41:27.272Z,58.80
2022-11-25T07:43:56.724Z,58.80
2022-11-25T07:46:34.587Z,58.80
2022-11-25T07:49:04.231Z,58.70
2022-11-25T07:51:39.559Z,58.70
2022-11-25T07:54:08.497Z,58.80
2022-11-25T07:56:37.152Z,58.70
2022-11-25T07:59:04.315Z,58.80
2022-11-25T08:01:30.945Z,58.80
2022-11-25T08:03:57.871Z,58.90
2022-11-25T08:06:27.123Z,58.90
2022-11-25T08:08:55.981Z,58.90
2022-11-25T08:11:25.629Z,58.80
2022-11-25T08:13:52.664Z,58.80
2022-11-25T08:16:21.790Z,58.80
2022-11-25T08:18:48.991Z,58.80
2022-11-25T08:21:19.228Z,58.70
2022-11-25T08:23:49.673Z,58.80
2022-11-25T08:26:26.105Z,58.80
2022-11-25T08:28:53.969Z,58.70
2022-11-25T08:31:23.844Z,58.70
2022-11-25T08:33:51.562Z,58.60
2022-11-25T08:36:19.023Z,58.70
2022-11-25T08:38:47.784Z,58.60
2022-11-25T08:41:18.083Z,58.20
2022-11-25T08:43:44.717Z,58.70
2022-11-25T08:46:14.106Z,58.60
2022-11-25T08:48:41.822Z,58.60
2022-11-25T08:51:12.064Z,58.60
2022-11-25T08:53:39.508Z,58.70
2022-11-25T08:56:06.912Z,58.70
2022-11-25T08:58:34.024Z,58.50
2022-11-25T09:01:01.414Z,58.60
2022-11-25T09:03:28.391Z,58.50
2022-11-25T09:05:55.179Z,58.50
2022-11-25T09:08:21.805Z,58.40
2022-11-25T09:10:48.553Z,58.20
2022-11-25T09:13:15.307Z,57.80
2022-11-25T09:15:41.993Z,58.30
2022-11-25T09:18:10.163Z,58.30
2022-11-25T09:20:40.283Z,58.30
2022-11-25T09:23:08.306Z,58.20
2022-11-25T09:25:35.790Z,58.30
2022-11-25T09:28:03.304Z,58.20
2022-11-25T09:32:57.761Z,57.80
2022-11-25T09:35:25.478Z,58.30
2022-11-25T09:37:52.168Z,58.30
2022-11-25T09:40:40.863Z,58.30
2022-11-25T09:43:56.638Z,58.30
2022-11-25T09:46:45.856Z,58.30
2022-11-25T09:49:40.785Z,58.20
2022-11-25T09:52:26.100Z,58.40
2022-11-25T09:55:08.621Z,58.60
2022-11-25T09:57:43.807Z,58.30
2022-11-25T10:00:16.469Z,58.40
2022-11-25T10:03:15.169Z,58.30
2022-11-25T10:05:59.774Z,58.30
2022-11-25T10:08:31.381Z,58.30
2022-11-25T10:11:22.430Z,58.40
2022-11-25T10:14:00.468Z,58.60
2022-11-25T10:16:35.773Z,58.60
2022-11-25T10:19:23.451Z,58.50
2022-11-25T10:21:50.317Z,58.40
2022-11-25T10:24:18.417Z,58.60
2022-11-25T10:26:56.017Z,58.70
2022-11-25T10:29:26.874Z,58.80
2022-11-25T10:32:01.219Z,58.90
2022-11-25T10:34:44.300Z,59.00
2022-11-25T10:37:26.656Z,59.50
2022-11-25T10:39:53.267Z,59.60
2022-11-25T10:42:26.352Z,59.00
2022-11-25T10:44:54.757Z,59.10
2022-11-25T10:48:03.382Z,59.10
2022-11-25T10:50:52.702Z,59.20
2022-11-25T10:53:26.336Z,59.20
2022-11-25T10:56:00.541Z,59.10
2022-11-25T10:58:27.170Z,59.20
2022-11-25T11:01:17.368Z,59.10
2022-11-25T11:03:46.226Z,59.20
2022-11-25T11:06:31.783Z,59.20
2022-11-25T11:08:58.544Z,59.10
2022-11-25T11:11:25.272Z,59.20
2022-11-25T11:14:10.747Z,59.20
2022-11-25T11:16:41.537Z,59.20
2022-11-25T11:19:27.895Z,59.20
2022-11-25T11:21:56.145Z,59.20
2022-11-25T11:24:29.385Z,59.20
2022-11-25T11:27:21.702Z,59.20
2022-11-25T11:29:48.993Z,59.20
2022-11-25T11:32:27.472Z,59.10
2022-11-25T11:35:07.848Z,59.20
2022-11-25T11:37:44.832Z,59.20
2022-11-25T11:40:29.973Z,59.20
2022-11-25T11:43:14.611Z,59.20
2022-11-25T11:45:53.223Z,59.10
2022-11-25T11:48:53.262Z,59.10
2022-11-25T11:51:49.175Z,59.10
2022-11-25T11:54:22.583Z,58.50
2022-11-25T11:57:00.042Z,59.00
2022-11-25T11:59:46.638Z,59.10
2022-11-25T12:02:24.080Z,59.00
2022-11-25T12:05:10.019Z,59.10
2022-11-25T12:08:00.543Z,59.00
2022-11-25T12:10:43.001Z,59.00
2022-11-25T12:13:36.858Z,58.90
2022-11-25T12:16:14.293Z,59.00
2022-11-25T12:19:06.438Z,59.00
2022-11-25T12:21:44.134Z,58.90
2022-11-25T12:24:44.145Z,58.90
2022-11-25T12:27:34.616Z,59.00
2022-11-25T12:30:10.114Z,59.00
2022-11-25T12:32:45.681Z,58.90
2022-11-25T12:35:30.956Z,58.80
2022-11-25T12:38:25.021Z,58.80
2022-11-25T12:41:13.099Z,58.80
2022-11-25T12:44:04.727Z,58.80
2022-11-25T12:46:46.423Z,58.70
2022-11-25T12:49:24.600Z,58.70
2022-11-25T12:52:12.892Z,58.30
2022-11-25T12:55:10.299Z,58.80
2022-11-25T12:57:49.784Z,58.80
2022-11-25T13:00:42.417Z,58.80
2022-11-25T13:03:27.223Z,58.40
2022-11-25T13:06:02.686Z,58.90
2022-11-25T13:09:06.743Z,58.90
2022-11-25T13:12:02.794Z,59.00
2022-11-25T13:15:13.045Z,59.00
2022-11-25T13:17:42.955Z,58.90
2022-11-25T13:20:28.016Z,59.10
2022-11-25T13:23:10.367Z,58.60
2022-11-25T13:25:42.093Z,59.10
2022-11-25T13:28:37.916Z,59.00
2022-11-25T13:31:15.982Z,58.60
2022-11-25T13:33:45.903Z,58.60
2022-11-25T13:36:21.075Z,59.20
2022-11-25T13:38:50.458Z,59.20
2022-11-25T13:41:20.013Z,59.20
2022-11-25T13:44:01.624Z,59.20
2022-11-25T13:46:42.941Z,59.20
2022-11-25T13:49:23.591Z,59.30
2022-11-25T13:51:53.104Z,59.30
2022-11-25T13:54:23.938Z,59.30
2022-11-25T13:57:22.063Z,59.30
2022-11-25T13:59:51.102Z,59.30
2022-11-25T14:02:34.983Z,59.30
2022-11-25T14:05:38.738Z,59.30
2022-11-25T14:08:20.365Z,59.30
2022-11-25T14:11:05.677Z,59.30
2022-11-25T14:14:04.360Z,59.40
2022-11-25T14:16:57.898Z,59.40
2022-11-25T14:19:56.050Z,59.40
2022-11-25T14:23:09.204Z,59.50
2022-11-25T14:25:53.914Z,59.50
2022-11-25T14:28:41.349Z,59.50
2022-11-25T14:31:14.795Z,59.00
2022-11-25T14:33:58.038Z,59.60
2022-11-25T14:36:33.704Z,59.60
2022-11-25T14:39:08.703Z,59.60
2022-11-25T14:41:57.618Z,59.60
2022-11-25T14:44:47.803Z,59.70
2022-11-25T14:47:14.653Z,59.70
2022-11-25T14:49:55.338Z,59.70
2022-11-25T14:52:36.761Z,59.10
2022-11-25T14:55:05.595Z,59.90
2022-11-25T14:57:39.804Z,59.80
2022-11-25T15:00:12.460Z,59.80
2022-11-25T15:02:41.974Z,59.80
2022-11-25T15:05:16.287Z,59.90
2022-11-25T15:07:53.118Z,59.90
2022-11-25T15:10:42.060Z,59.90
2022-11-25T15:13:14.237Z,60.00
2022-11-25T15:15:45.057Z,60.00
2022-11-25T15:18:21.456Z,60.00
2022-11-25T15:20:54.041Z,60.10
2022-11-25T15:23:27.757Z,60.10
2022-11-25T15:25:55.118Z,60.10
2022-11-25T15:28:21.783Z,60.10
2022-11-25T15:31:02.493Z,60.20
2022-11-25T15:33:29.904Z,59.60
2022-11-25T15:35:56.654Z,58.60
2022-11-25T15:38:35.415Z,59.30
2022-11-25T15:41:02.991Z,59.40
2022-11-25T15:43:31.544Z,59.50
2022-11-25T15:46:05.768Z,59.60
2022-11-25T15:48:40.984Z,59.60
2022-11-25T15:51:38.344Z,59.60
2022-11-25T15:54:15.190Z,59.70
2022-11-25T15:56:48.844Z,59.80
2022-11-25T15:59:47.952Z,59.80
2022-11-25T16:02:31.347Z,59.90
2022-11-25T16:05:13.545Z,60.00
2022-11-25T16:07:52.330Z,60.00
2022-11-25T16:10:23.644Z,60.00
2022-11-25T16:13:21.173Z,60.00
2022-11-25T16:16:00.184Z,60.00
2022-11-25T16:18:51.380Z,60.00
2022-11-25T16:21:32.883Z,60.10
2022-11-25T16:24:05.544Z,60.20
2022-11-25T16:26:40.082Z,60.10
2022-11-25T16:29:38.999Z,60.10
2022-11-25T16:32:20.586Z,60.20
2022-11-25T16:34:47.376Z,60.20
2022-11-25T16:37:14.148Z,60.20
2022-11-25T16:39:40.802Z,60.30
2022-11-25T16:42:14.276Z,59.70
2022-11-25T16:44:40.999Z,60.20
2022-11-25T16:47:10.460Z,61.00
2022-11-25T16:49:37.239Z,60.20
2022-11-25T16:52:04.016Z,60.30
2022-11-25T16:54:31.581Z,60.30
2022-11-25T16:56:58.434Z,60.30
2022-11-25T16:59:36.761Z,60.30
2022-11-25T17:02:09.644Z,59.90
2022-11-25T17:04:36.358Z,60.40
2022-11-25T17:07:34.036Z,60.50
2022-11-25T17:09:52.404Z,60.60
2022-11-25T17:12:29.370Z,60.60
2022-11-25T17:14:56.230Z,60.60
2022-11-25T17:17:25.137Z,60.50
2022-11-25T17:19:53.088Z,60.60
2022-11-25T17:22:22.373Z,60.50
2022-11-25T17:24:49.026Z,60.60
2022-11-25T17:27:32.249Z,60.70
2022-11-25T17:30:01.093Z,60.70
2022-11-25T17:32:27.906Z,60.70
2022-11-25T17:34:54.558Z,60.80
2022-11-25T17:37:23.635Z,60.70
2022-11-25T17:39:52.599Z,60.80
2022-11-25T17:42:26.757Z,60.80
2022-11-25T17:44:54.478Z,60.80
2022-11-25T17:47:21.382Z,60.70
2022-11-25T17:49:49.275Z,60.70
2022-11-25T17:52:16.027Z,60.80
2022-11-25T17:54:42.630Z,60.70
2022-11-25T17:57:15.559Z,60.70
2022-11-25T17:59:42.223Z,60.70
2022-11-25T18:02:21.136Z,60.80
2022-11-25T18:04:48.472Z,60.80
2022-11-25T18:07:15.122Z,60.70
2022-11-25T18:09:41.993Z,60.80
2022-11-25T18:12:15.175Z,60.30
2022-11-25T18:14:42.839Z,60.90
2022-11-25T18:17:17.837Z,60.90
2022-11-25T18:19:48.569Z,60.90
2022-11-25T18:22:19.844Z,60.90
2022-11-25T18:24:46.534Z,60.90
2022-11-25T18:27:22.686Z,60.90
2022-11-25T18:29:50.439Z,60.90
2022-11-25T18:32:17.156Z,60.90
2022-11-25T18:34:44.020Z,61.00
2022-11-25T18:37:13.709Z,61.00
2022-11-25T18:39:40.524Z,61.00
2022-11-25T18:42:07.866Z,61.00
2022-11-25T18:44:37.818Z,61.10
2022-11-25T18:47:05.530Z,61.80
2022-11-25T18:49:32.138Z,61.10
2022-11-25T18:51:58.748Z,61.10
2022-11-25T18:54:25.315Z,61.10
2022-11-25T18:56:52.747Z,61.10
2022-11-25T18:59:26.772Z,61.10
2022-11-25T19:01:54.287Z,60.60
2022-11-25T19:04:20.989Z,61.20
2022-11-25T19:06:47.582Z,61.20
2022-11-25T19:09:14.187Z,61.30
2022-11-25T19:11:49.266Z,61.30
2022-11-25T19:14:37.358Z,61.20
2022-11-25T19:17:08.133Z,61.30
2022-11-25T19:19:37.598Z,61.30
2022-11-25T19:22:10.925Z,61.90
2022-11-25T19:24:37.700Z,61.30
2022-11-25T19:27:04.875Z,61.40
2022-11-25T19:29:41.570Z,61.40
2022-11-25T19:32:18.854Z,60.80
2022-11-25T19:34:50.009Z,61.30
2022-11-25T19:37:20.272Z,61.50
2022-11-25T19:39:49.238Z,61.50
2022-11-25T19:42:16.169Z,61.40
2022-11-25T19:44:43.519Z,61.50
2022-11-25T19:47:16.641Z,61.50
2022-11-25T19:49:44.097Z,61.50
2022-11-25T19:52:16.295Z,61.40
2022-11-25T19:54:43.371Z,61.60
2022-11-25T19:57:18.207Z,61.60
2022-11-25T19:59:45.082Z,61.50
2022-11-25T20:02:20.914Z,61.50
2022-11-25T20:04:51.188Z,61.60
2022-11-25T20:07:20.264Z,61.50
2022-11-25T20:09:47.522Z,61.60
2022-11-25T20:12:28.083Z,61.60
2022-11-25T20:14:54.678Z,61.60
2022-11-25T20:17:32.794Z,61.70
2022-11-25T20:20:23.250Z,61.60
2022-11-25T20:23:06.747Z,61.00
2022-11-25T20:25:47.627Z,61.60
2022-11-25T20:28:22.964Z,61.60
2022-11-25T20:30:53.316Z,61.60
2022-11-25T20:33:24.304Z,61.00
2022-11-25T20:36:04.397Z,61.60
2022-11-25T20:38:32.456Z,61.60
2022-11-25T20:41:00.287Z,61.60
2022-11-25T20:43:38.574Z,61.60
2022-11-25T20:46:06.948Z,61.60
2022-11-25T20:48:37.271Z,61.60
2022-11-25T20:51:06.807Z,61.60
2022-11-25T20:53:34.795Z,61.60
2022-11-25T20:56:01.891Z,61.60
2022-11-25T20:58:31.614Z,61.60
2022-11-25T21:00:59.165Z,61.60
2022-11-25T21:03:26.538Z,61.60
2022-11-25T21:05:54.756Z,61.60
2022-11-25T21:08:23.893Z,61.60
2022-11-25T21:10:52.262Z,61.60
2022-11-25T21:13:21.575Z,61.60
2022-11-25T21:15:54.459Z,61.60
2022-11-25T21:18:22.190Z,61.60
2022-11-25T21:20:51.215Z,61.60
2022-11-25T21:23:28.265Z,61.70
2022-11-25T21:26:02.556Z,61.60
2022-11-25T21:28:29.208Z,61.60
2022-11-25T21:30:55.866Z,62.30
2022-11-25T21:33:22.458Z,61.60
2022-11-25T21:35:52.771Z,61.60
2022-11-25T21:38:24.895Z,61.60
2022-11-25T21:40:54.372Z,61.60
2022-11-25T21:43:28.636Z,61.60
2022-11-25T21:46:07.364Z,62.00
2022-11-25T21:48:34.769Z,61.60
2022-11-25T21:51:01.440Z,61.60
2022-11-25T21:53:30.119Z,61.60
2022-11-25T21:56:01.164Z,61.60
2022-11-25T21:58:29.909Z,61.60
2022-11-25T22:00:58.867Z,61.60
2022-11-25T22:03:28.925Z,61.60
2022-11-25T22:05:55.650Z,61.60
2022-11-25T22:08:23.757Z,61.60
2022-11-25T22:10:52.540Z,61.50
2022-11-25T22:13:23.026Z,61.60
2022-11-25T22:15:53.812Z,61.60
2022-11-25T22:18:38.431Z,61.60
2022-11-25T22:21:05.143Z,61.60
2022-11-25T22:23:31.741Z,61.50
2022-11-25T22:25:58.736Z,61.60
2022-11-25T22:28:27.837Z,62.40
2022-11-25T22:31:02.674Z,61.60
2022-11-25T22:33:31.794Z,61.60
2022-11-25T22:35:59.139Z,61.60
2022-11-25T22:38:28.087Z,61.60
2022-11-25T22:40:59.271Z,61.60
2022-11-25T22:43:48.884Z,61.60
2022-11-25T22:46:15.861Z,61.50
2022-11-25T22:48:42.540Z,61.60
2022-11-25T22:51:18.224Z,61.60
2022-11-25T22:53:44.849Z,61.60
2022-11-25T22:56:19.323Z,61.60
2022-11-25T22:58:46.407Z,61.60
2022-11-25T23:01:15.383Z,61.50
2022-11-25T23:03:43.132Z,61.60
2022-11-25T23:06:13.548Z,61.50
2022-11-25T23:08:40.582Z,61.50
2022-11-25T23:11:10.867Z,60.90
2022-11-25T23:13:37.488Z,61.50
2022-11-25T23:16:04.789Z,61.50
2022-11-25T23:18:38.971Z,61.50
2022-11-25T23:21:07.228Z,60.90
2022-11-25T23:23:33.834Z,61.50
2022-11-25T23:26:00.547Z,61.50
2022-11-25T23:28:27.144Z,61.50
2022-11-25T23:30:55.674Z,61.60
2022-11-25T23:33:36.983Z,61.50
2022-11-25T23:36:33.399Z,61.50
2022-11-25T23:39:02.390Z,61.50
2022-11-25T23:41:31.479Z,61.50
2022-11-25T23:44:31.497Z,61.50
2022-11-25T23:47:04.005Z,61.50
2022-11-25T23:49:35.369Z,61.50
2022-11-25T23:52:07.827Z,61.50
2022-11-25T23:54:41.844Z,61.50
2022-11-25T23:57:15.207Z,61.50
2022-11-25T23:59:42.563Z,61.40
